sensor_id;sensor_type;location;lat;lon;timestamp;P1;durP1;ratioP1;P2;durP2;ratioP2
73571;SDS011;61854;48.510;-2.770;2022-07-29T00:01:07;10.63;;;3.67;;
73571;SDS011;61854;48.510;-2.770;2022-07-29T00:03:32;9.65;;;3.67;;
73571;SDS011;61854;48.510;-2.770;2022-07-29T00:05:58;10.30;;;4.07;;
73571;SDS011;61854;48.510;-2.770;2022-07-29T00:08:23;10.27;;;4.22;;
73571;SDS011;61854;48.510;-2.770;2022-07-29T00:10:49;10.90;;;3.80;;
73571;SDS011;61854;48.510;-2.770;2022-07-29T00:13:15;9.25;;;3.63;;
73571;SDS011;61854;48.510;-2.770;2022-07-29T00:15:41;11.18;;;4.35;;
73571;SDS011;61854;48.510;-2.770;2022-07-29T00:18:06;12.48;;;4.38;;
73571;SDS011;61854;48.510;-2.770;2022-07-29T00:20:32;12.50;;;4.35;;
73571;SDS011;61854;48.510;-2.770;2022-07-29T00:22:58;12.38;;;4.82;;
73571;SDS011;61854;48.510;-2.770;2022-07-29T00:25:23;12.35;;;4.63;;
73571;SDS011;61854;48.510;-2.770;2022-07-29T00:27:49;11.95;;;4.90;;
73571;SDS011;61854;48.510;-2.770;2022-07-29T00:30:15;11.68;;;4.53;;
73571;SDS011;61854;48.510;-2.770;2022-07-29T00:32:41;8.48;;;4.57;;
73571;SDS011;61854;48.510;-2.770;2022-07-29T00:35:06;10.60;;;4.32;;
73571;SDS011;61854;48.510;-2.770;2022-07-29T00:37:51;14.30;;;4.90;;
73571;SDS011;61854;48.510;-2.770;2022-07-29T00:40:17;13.77;;;4.53;;
73571;SDS011;61854;48.510;-2.770;2022-07-29T00:42:46;14.38;;;4.90;;
73571;SDS011;61854;48.510;-2.770;2022-07-29T00:45:13;12.57;;;5.07;;
73571;SDS011;61854;48.510;-2.770;2022-07-29T00:47:40;17.15;;;5.72;;
73571;SDS011;61854;48.510;-2.770;2022-07-29T00:50:07;17.63;;;6.22;;
73571;SDS011;61854;48.510;-2.770;2022-07-29T00:52:34;12.38;;;6.63;;
73571;SDS011;61854;48.510;-2.770;2022-07-29T00:55:05;14.65;;;7.80;;
73571;SDS011;61854;48.510;-2.770;2022-07-29T00:57:32;15.98;;;7.65;;
73571;SDS011;61854;48.510;-2.770;2022-07-29T00:59:58;17.50;;;7.10;;
73571;SDS011;61854;48.510;-2.770;2022-07-29T01:02:24;18.80;;;7.47;;
73571;SDS011;61854;48.510;-2.770;2022-07-29T01:04:49;15.93;;;7.97;;
73571;SDS011;61854;48.510;-2.770;2022-07-29T01:07:16;14.65;;;7.70;;
73571;SDS011;61854;48.510;-2.770;2022-07-29T01:09:43;19.52;;;8.32;;
73571;SDS011;61854;48.510;-2.770;2022-07-29T01:12:10;20.88;;;8.68;;
73571;SDS011;61854;48.510;-2.770;2022-07-29T01:14:37;18.07;;;8.57;;
73571;SDS011;61854;48.510;-2.770;2022-07-29T01:31:16;19.15;;;7.45;;
73571;SDS011;61854;48.510;-2.770;2022-07-29T01:33:45;14.20;;;6.60;;
73571;SDS011;61854;48.510;-2.770;2022-07-29T01:36:22;13.73;;;6.75;;
73571;SDS011;61854;48.510;-2.770;2022-07-29T01:38:58;11.77;;;6.47;;
73571;SDS011;61854;48.510;-2.770;2022-07-29T01:41:29;16.88;;;6.72;;
73571;SDS011;61854;48.510;-2.770;2022-07-29T01:43:59;20.40;;;8.23;;
73571;SDS011;61854;48.510;-2.770;2022-07-29T01:46:30;15.63;;;7.70;;
73571;SDS011;61854;48.510;-2.770;2022-07-29T01:49:02;15.82;;;8.00;;
73571;SDS011;61854;48.510;-2.770;2022-07-29T01:51:40;16.05;;;8.30;;
73571;SDS011;61854;48.510;-2.770;2022-07-29T01:56:55;12.38;;;8.00;;
73571;SDS011;61854;48.510;-2.770;2022-07-29T01:59:23;24.30;;;8.80;;
73571;SDS011;61854;48.510;-2.770;2022-07-29T02:01:50;20.90;;;8.75;;
73571;SDS011;61854;48.510;-2.770;2022-07-29T02:06:45;19.33;;;8.75;;
73571;SDS011;61854;48.510;-2.770;2022-07-29T02:09:14;18.38;;;9.60;;
73571;SDS011;61854;48.510;-2.770;2022-07-29T02:11:41;15.25;;;7.85;;
73571;SDS011;61854;48.510;-2.770;2022-07-29T02:14:14;16.48;;;8.88;;
73571;SDS011;61854;48.510;-2.770;2022-07-29T02:19:08;18.85;;;9.65;;
73571;SDS011;61854;48.510;-2.770;2022-07-29T02:21:35;17.40;;;8.95;;
73571;SDS011;61854;48.510;-2.770;2022-07-29T02:24:02;20.17;;;9.38;;
73571;SDS011;61854;48.510;-2.770;2022-07-29T02:26:29;19.48;;;9.60;;
73571;SDS011;61854;48.510;-2.770;2022-07-29T02:28:57;20.30;;;10.27;;
73571;SDS011;61854;48.510;-2.770;2022-07-29T02:31:26;18.83;;;9.60;;
73571;SDS011;61854;48.510;-2.770;2022-07-29T02:33:54;17.80;;;9.75;;
73571;SDS011;61854;48.510;-2.770;2022-07-29T02:36:21;16.13;;;9.13;;
73571;SDS011;61854;48.510;-2.770;2022-07-29T02:38:49;17.48;;;8.80;;
73571;SDS011;61854;48.510;-2.770;2022-07-29T02:41:17;17.17;;;8.20;;
73571;SDS011;61854;48.510;-2.770;2022-07-29T02:43:46;17.63;;;8.27;;
73571;SDS011;61854;48.510;-2.770;2022-07-29T02:46:16;14.43;;;7.65;;
73571;SDS011;61854;48.510;-2.770;2022-07-29T02:48:51;16.83;;;7.90;;
73571;SDS011;61854;48.510;-2.770;2022-07-29T02:51:54;18.38;;;7.53;;
73571;SDS011;61854;48.510;-2.770;2022-07-29T02:54:30;15.52;;;7.22;;
73571;SDS011;61854;48.510;-2.770;2022-07-29T02:57:01;15.30;;;6.95;;
73571;SDS011;61854;48.510;-2.770;2022-07-29T02:59:34;13.88;;;6.18;;
73571;SDS011;61854;48.510;-2.770;2022-07-29T03:02:02;14.15;;;7.18;;
73571;SDS011;61854;48.510;-2.770;2022-07-29T03:04:30;14.57;;;7.45;;
73571;SDS011;61854;48.510;-2.770;2022-07-29T03:06:58;14.60;;;6.97;;
73571;SDS011;61854;48.510;-2.770;2022-07-29T03:09:25;17.60;;;7.45;;
73571;SDS011;61854;48.510;-2.770;2022-07-29T03:11:51;14.25;;;7.07;;
73571;SDS011;61854;48.510;-2.770;2022-07-29T03:14:19;18.15;;;7.35;;
73571;SDS011;61854;48.510;-2.770;2022-07-29T03:16:45;17.00;;;6.53;;
73571;SDS011;61854;48.510;-2.770;2022-07-29T03:19:12;16.15;;;7.63;;
73571;SDS011;61854;48.510;-2.770;2022-07-29T03:21:38;17.05;;;7.32;;
73571;SDS011;61854;48.510;-2.770;2022-07-29T03:24:04;14.77;;;7.78;;
73571;SDS011;61854;48.510;-2.770;2022-07-29T03:26:29;11.40;;;6.90;;
73571;SDS011;61854;48.510;-2.770;2022-07-29T03:28:55;13.65;;;7.25;;
73571;SDS011;61854;48.510;-2.770;2022-07-29T03:31:21;21.60;;;7.70;;
73571;SDS011;61854;48.510;-2.770;2022-07-29T03:33:46;14.18;;;7.22;;
73571;SDS011;61854;48.510;-2.770;2022-07-29T03:36:12;13.05;;;7.65;;
73571;SDS011;61854;48.510;-2.770;2022-07-29T03:38:38;15.40;;;8.15;;
73571;SDS011;61854;48.510;-2.770;2022-07-29T03:41:07;15.05;;;8.10;;
73571;SDS011;61854;48.510;-2.770;2022-07-29T03:43:36;13.65;;;8.07;;
73571;SDS011;61854;48.510;-2.770;2022-07-29T03:46:03;15.63;;;8.30;;
73571;SDS011;61854;48.510;-2.770;2022-07-29T03:48:32;14.18;;;8.13;;
73571;SDS011;61854;48.510;-2.770;2022-07-29T03:51:01;15.82;;;7.72;;
73571;SDS011;61854;48.510;-2.770;2022-07-29T03:53:27;18.88;;;8.40;;
73571;SDS011;61854;48.510;-2.770;2022-07-29T03:55:54;17.25;;;7.68;;
73571;SDS011;61854;48.510;-2.770;2022-07-29T03:58:22;16.35;;;7.32;;
73571;SDS011;61854;48.510;-2.770;2022-07-29T04:03:17;14.25;;;7.18;;
73571;SDS011;61854;48.510;-2.770;2022-07-29T04:05:43;12.50;;;6.30;;
73571;SDS011;61854;48.510;-2.770;2022-07-29T04:08:08;15.63;;;7.32;;
73571;SDS011;61854;48.510;-2.770;2022-07-29T04:10:34;16.58;;;7.10;;
73571;SDS011;61854;48.510;-2.770;2022-07-29T04:13:00;15.82;;;7.00;;
73571;SDS011;61854;48.510;-2.770;2022-07-29T04:15:25;18.45;;;7.25;;
73571;SDS011;61854;48.510;-2.770;2022-07-29T04:17:53;16.63;;;7.05;;
73571;SDS011;61854;48.510;-2.770;2022-07-29T04:20:20;16.40;;;7.70;;
73571;SDS011;61854;48.510;-2.770;2022-07-29T04:22:45;15.98;;;7.13;;
73571;SDS011;61854;48.510;-2.770;2022-07-29T04:25:11;15.07;;;7.15;;
73571;SDS011;61854;48.510;-2.770;2022-07-29T04:27:36;13.52;;;7.20;;
73571;SDS011;61854;48.510;-2.770;2022-07-29T04:30:22;12.85;;;6.97;;
73571;SDS011;61854;48.510;-2.770;2022-07-29T04:32:48;15.30;;;6.68;;
73571;SDS011;61854;48.510;-2.770;2022-07-29T04:35:14;15.18;;;7.00;;
73571;SDS011;61854;48.510;-2.770;2022-07-29T04:37:39;13.38;;;7.93;;
73571;SDS011;61854;48.510;-2.770;2022-07-29T04:40:05;13.07;;;8.73;;
73571;SDS011;61854;48.510;-2.770;2022-07-29T04:42:31;18.27;;;9.48;;
73571;SDS011;61854;48.510;-2.770;2022-07-29T04:44:57;14.70;;;8.00;;
73571;SDS011;61854;48.510;-2.770;2022-07-29T04:47:22;17.17;;;9.48;;
73571;SDS011;61854;48.510;-2.770;2022-07-29T04:49:48;16.00;;;8.25;;
73571;SDS011;61854;48.510;-2.770;2022-07-29T04:52:13;12.55;;;9.32;;
73571;SDS011;61854;48.510;-2.770;2022-07-29T04:54:39;16.40;;;10.43;;
73571;SDS011;61854;48.510;-2.770;2022-07-29T04:57:04;16.33;;;9.48;;
73571;SDS011;61854;48.510;-2.770;2022-07-29T04:59:30;18.98;;;9.63;;
73571;SDS011;61854;48.510;-2.770;2022-07-29T05:01:56;57.88;;;11.10;;
73571;SDS011;61854;48.510;-2.770;2022-07-29T05:04:22;21.52;;;9.25;;
73571;SDS011;61854;48.510;-2.770;2022-07-29T05:06:48;15.68;;;10.02;;
73571;SDS011;61854;48.510;-2.770;2022-07-29T05:09:13;17.48;;;9.75;;
73571;SDS011;61854;48.510;-2.770;2022-07-29T05:11:39;18.30;;;10.15;;
73571;SDS011;61854;48.510;-2.770;2022-07-29T05:14:04;14.88;;;9.13;;
73571;SDS011;61854;48.510;-2.770;2022-07-29T05:16:30;22.67;;;9.27;;
73571;SDS011;61854;48.510;-2.770;2022-07-29T05:18:56;14.95;;;9.07;;
73571;SDS011;61854;48.510;-2.770;2022-07-29T05:21:21;14.73;;;8.98;;
73571;SDS011;61854;48.510;-2.770;2022-07-29T05:23:47;37.20;;;10.70;;
73571;SDS011;61854;48.510;-2.770;2022-07-29T05:26:12;24.05;;;9.60;;
73571;SDS011;61854;48.510;-2.770;2022-07-29T05:28:38;32.38;;;8.80;;
73571;SDS011;61854;48.510;-2.770;2022-07-29T05:31:04;22.10;;;9.13;;
73571;SDS011;61854;48.510;-2.770;2022-07-29T05:33:29;53.55;;;10.05;;
73571;SDS011;61854;48.510;-2.770;2022-07-29T05:35:55;28.90;;;8.57;;
73571;SDS011;61854;48.510;-2.770;2022-07-29T05:38:20;14.48;;;7.93;;
73571;SDS011;61854;48.510;-2.770;2022-07-29T05:40:46;16.98;;;8.07;;
73571;SDS011;61854;48.510;-2.770;2022-07-29T05:43:11;18.27;;;8.02;;
73571;SDS011;61854;48.510;-2.770;2022-07-29T05:45:38;56.90;;;10.98;;
73571;SDS011;61854;48.510;-2.770;2022-07-29T05:48:04;24.70;;;8.40;;
73571;SDS011;61854;48.510;-2.770;2022-07-29T05:50:29;112.25;;;12.20;;
73571;SDS011;61854;48.510;-2.770;2022-07-29T05:52:55;58.05;;;9.55;;
73571;SDS011;61854;48.510;-2.770;2022-07-29T05:55:21;28.73;;;7.32;;
73571;SDS011;61854;48.510;-2.770;2022-07-29T05:57:46;26.95;;;7.57;;
73571;SDS011;61854;48.510;-2.770;2022-07-29T06:00:12;15.38;;;7.18;;
73571;SDS011;61854;48.510;-2.770;2022-07-29T06:02:38;42.03;;;7.90;;
73571;SDS011;61854;48.510;-2.770;2022-07-29T06:05:03;19.90;;;7.07;;
73571;SDS011;61854;48.510;-2.770;2022-07-29T06:07:29;19.35;;;7.18;;
73571;SDS011;61854;48.510;-2.770;2022-07-29T06:09:55;16.55;;;6.70;;
73571;SDS011;61854;48.510;-2.770;2022-07-29T06:12:21;16.55;;;6.50;;
73571;SDS011;61854;48.510;-2.770;2022-07-29T06:14:46;18.70;;;6.63;;
73571;SDS011;61854;48.510;-2.770;2022-07-29T06:17:12;10.85;;;6.00;;
73571;SDS011;61854;48.510;-2.770;2022-07-29T06:19:38;20.13;;;6.32;;
73571;SDS011;61854;48.510;-2.770;2022-07-29T06:22:03;15.88;;;6.35;;
73571;SDS011;61854;48.510;-2.770;2022-07-29T06:24:29;15.93;;;6.18;;
73571;SDS011;61854;48.510;-2.770;2022-07-29T06:26:54;26.23;;;6.53;;
73571;SDS011;61854;48.510;-2.770;2022-07-29T06:29:20;18.73;;;6.90;;
73571;SDS011;61854;48.510;-2.770;2022-07-29T06:31:46;10.20;;;5.13;;
73571;SDS011;61854;48.510;-2.770;2022-07-29T06:34:12;14.75;;;6.25;;
73571;SDS011;61854;48.510;-2.770;2022-07-29T06:36:37;13.65;;;5.40;;
73571;SDS011;61854;48.510;-2.770;2022-07-29T06:39:06;18.48;;;5.85;;
73571;SDS011;61854;48.510;-2.770;2022-07-29T06:41:32;17.90;;;6.13;;
73571;SDS011;61854;48.510;-2.770;2022-07-29T06:43:58;10.32;;;5.93;;
73571;SDS011;61854;48.510;-2.770;2022-07-29T06:46:24;11.98;;;5.68;;
73571;SDS011;61854;48.510;-2.770;2022-07-29T06:48:50;18.27;;;5.78;;
73571;SDS011;61854;48.510;-2.770;2022-07-29T06:51:17;16.35;;;5.63;;
73571;SDS011;61854;48.510;-2.770;2022-07-29T06:53:43;15.90;;;5.03;;
73571;SDS011;61854;48.510;-2.770;2022-07-29T06:56:10;12.55;;;4.85;;
73571;SDS011;61854;48.510;-2.770;2022-07-29T06:58:37;68.30;;;7.67;;
73571;SDS011;61854;48.510;-2.770;2022-07-29T07:01:04;98.75;;;8.82;;
73571;SDS011;61854;48.510;-2.770;2022-07-29T07:03:31;17.30;;;4.73;;
73571;SDS011;61854;48.510;-2.770;2022-07-29T07:05:57;14.68;;;4.72;;
73571;SDS011;61854;48.510;-2.770;2022-07-29T07:08:23;41.47;;;5.85;;
73571;SDS011;61854;48.510;-2.770;2022-07-29T07:10:49;17.85;;;4.43;;
73571;SDS011;61854;48.510;-2.770;2022-07-29T07:13:16;10.95;;;3.60;;
73571;SDS011;61854;48.510;-2.770;2022-07-29T07:15:43;12.30;;;3.17;;
73571;SDS011;61854;48.510;-2.770;2022-07-29T07:18:10;12.05;;;3.53;;
73571;SDS011;61854;48.510;-2.770;2022-07-29T07:20:36;19.58;;;3.72;;
73571;SDS011;61854;48.510;-2.770;2022-07-29T07:23:02;10.32;;;3.28;;
73571;SDS011;61854;48.510;-2.770;2022-07-29T07:25:28;14.38;;;3.30;;
73571;SDS011;61854;48.510;-2.770;2022-07-29T07:27:54;15.57;;;3.10;;
73571;SDS011;61854;48.510;-2.770;2022-07-29T07:30:19;17.45;;;3.35;;
73571;SDS011;61854;48.510;-2.770;2022-07-29T07:32:46;13.10;;;3.47;;
73571;SDS011;61854;48.510;-2.770;2022-07-29T07:35:11;11.43;;;3.35;;
73571;SDS011;61854;48.510;-2.770;2022-07-29T07:37:41;10.25;;;2.75;;
73571;SDS011;61854;48.510;-2.770;2022-07-29T07:40:07;12.57;;;3.15;;
73571;SDS011;61854;48.510;-2.770;2022-07-29T07:42:35;10.68;;;3.03;;
73571;SDS011;61854;48.510;-2.770;2022-07-29T07:45:00;10.48;;;2.63;;
73571;SDS011;61854;48.510;-2.770;2022-07-29T07:47:26;9.65;;;2.88;;
73571;SDS011;61854;48.510;-2.770;2022-07-29T07:49:52;9.50;;;2.92;;
73571;SDS011;61854;48.510;-2.770;2022-07-29T07:52:19;9.23;;;2.42;;
73571;SDS011;61854;48.510;-2.770;2022-07-29T07:54:45;7.23;;;2.53;;
73571;SDS011;61854;48.510;-2.770;2022-07-29T07:57:12;9.48;;;2.60;;
73571;SDS011;61854;48.510;-2.770;2022-07-29T07:59:38;6.65;;;2.40;;
73571;SDS011;61854;48.510;-2.770;2022-07-29T08:02:04;9.30;;;2.40;;
73571;SDS011;61854;48.510;-2.770;2022-07-29T08:04:30;10.02;;;2.70;;
73571;SDS011;61854;48.510;-2.770;2022-07-29T08:06:56;9.23;;;2.72;;
73571;SDS011;61854;48.510;-2.770;2022-07-29T08:09:23;8.55;;;2.80;;
73571;SDS011;61854;48.510;-2.770;2022-07-29T08:11:49;12.20;;;2.22;;
73571;SDS011;61854;48.510;-2.770;2022-07-29T08:14:15;8.48;;;2.13;;
73571;SDS011;61854;48.510;-2.770;2022-07-29T08:16:41;11.45;;;2.53;;
73571;SDS011;61854;48.510;-2.770;2022-07-29T08:19:08;11.27;;;2.50;;
73571;SDS011;61854;48.510;-2.770;2022-07-29T08:21:34;8.80;;;2.35;;
73571;SDS011;61854;48.510;-2.770;2022-07-29T08:24:00;7.60;;;2.17;;
73571;SDS011;61854;48.510;-2.770;2022-07-29T08:26:44;12.23;;;2.53;;
73571;SDS011;61854;48.510;-2.770;2022-07-29T08:29:10;15.77;;;2.08;;
73571;SDS011;61854;48.510;-2.770;2022-07-29T08:31:37;8.40;;;1.83;;
73571;SDS011;61854;48.510;-2.770;2022-07-29T08:34:03;10.30;;;2.00;;
73571;SDS011;61854;48.510;-2.770;2022-07-29T08:36:30;11.27;;;1.88;;
73571;SDS011;61854;48.510;-2.770;2022-07-29T08:38:57;7.20;;;1.98;;
73571;SDS011;61854;48.510;-2.770;2022-07-29T08:41:23;8.27;;;1.90;;
73571;SDS011;61854;48.510;-2.770;2022-07-29T08:43:49;83.95;;;4.93;;
73571;SDS011;61854;48.510;-2.770;2022-07-29T08:46:16;11.15;;;2.03;;
73571;SDS011;61854;48.510;-2.770;2022-07-29T08:48:42;7.85;;;1.70;;
73571;SDS011;61854;48.510;-2.770;2022-07-29T08:51:08;6.18;;;1.80;;
73571;SDS011;61854;48.510;-2.770;2022-07-29T08:53:40;8.48;;;2.00;;
73571;SDS011;61854;48.510;-2.770;2022-07-29T08:58:36;5.85;;;1.98;;
73571;SDS011;61854;48.510;-2.770;2022-07-29T09:01:02;10.63;;;2.30;;
73571;SDS011;61854;48.510;-2.770;2022-07-29T09:03:31;12.10;;;1.83;;
73571;SDS011;61854;48.510;-2.770;2022-07-29T09:05:59;6.43;;;1.88;;
73571;SDS011;61854;48.510;-2.770;2022-07-29T09:08:26;7.30;;;2.25;;
73571;SDS011;61854;48.510;-2.770;2022-07-29T09:10:53;6.22;;;2.00;;
73571;SDS011;61854;48.510;-2.770;2022-07-29T09:13:20;11.23;;;2.27;;
73571;SDS011;61854;48.510;-2.770;2022-07-29T09:15:49;8.18;;;2.10;;
73571;SDS011;61854;48.510;-2.770;2022-07-29T09:18:37;14.60;;;2.22;;
73571;SDS011;61854;48.510;-2.770;2022-07-29T09:21:04;8.13;;;1.70;;
73571;SDS011;61854;48.510;-2.770;2022-07-29T09:24:00;7.53;;;1.90;;
73571;SDS011;61854;48.510;-2.770;2022-07-29T09:26:33;8.15;;;1.95;;
73571;SDS011;61854;48.510;-2.770;2022-07-29T09:29:00;8.60;;;2.25;;
73571;SDS011;61854;48.510;-2.770;2022-07-29T09:31:41;6.25;;;1.83;;
73571;SDS011;61854;48.510;-2.770;2022-07-29T09:36:40;36.78;;;3.10;;
73571;SDS011;61854;48.510;-2.770;2022-07-29T09:39:07;54.28;;;3.35;;
73571;SDS011;61854;48.510;-2.770;2022-07-29T09:41:49;17.85;;;1.88;;
73571;SDS011;61854;48.510;-2.770;2022-07-29T09:44:19;8.65;;;1.65;;
73571;SDS011;61854;48.510;-2.770;2022-07-29T09:46:58;8.95;;;1.70;;
73571;SDS011;61854;48.510;-2.770;2022-07-29T09:49:32;9.05;;;1.70;;
73571;SDS011;61854;48.510;-2.770;2022-07-29T09:52:06;9.35;;;1.75;;
73571;SDS011;61854;48.510;-2.770;2022-07-29T09:54:33;5.07;;;1.35;;
73571;SDS011;61854;48.510;-2.770;2022-07-29T09:57:02;8.65;;;1.85;;
73571;SDS011;61854;48.510;-2.770;2022-07-29T09:59:32;4.13;;;1.50;;
73571;SDS011;61854;48.510;-2.770;2022-07-29T10:01:58;6.05;;;1.50;;
73571;SDS011;61854;48.510;-2.770;2022-07-29T10:04:24;8.30;;;1.70;;
73571;SDS011;61854;48.510;-2.770;2022-07-29T10:07:02;5.32;;;1.20;;
73571;SDS011;61854;48.510;-2.770;2022-07-29T10:09:30;7.32;;;1.63;;
73571;SDS011;61854;48.510;-2.770;2022-07-29T10:12:03;3.58;;;1.38;;
73571;SDS011;61854;48.510;-2.770;2022-07-29T10:14:38;4.82;;;1.40;;
73571;SDS011;61854;48.510;-2.770;2022-07-29T10:17:06;8.52;;;1.40;;
73571;SDS011;61854;48.510;-2.770;2022-07-29T10:19:32;7.32;;;1.67;;
73571;SDS011;61854;48.510;-2.770;2022-07-29T10:21:59;5.80;;;1.50;;
73571;SDS011;61854;48.510;-2.770;2022-07-29T10:24:27;42.35;;;3.10;;
73571;SDS011;61854;48.510;-2.770;2022-07-29T10:26:55;4.28;;;1.23;;
73571;SDS011;61854;48.510;-2.770;2022-07-29T10:29:21;3.60;;;0.93;;
73571;SDS011;61854;48.510;-2.770;2022-07-29T10:43:28;11.45;;;1.52;;
73571;SDS011;61854;48.510;-2.770;2022-07-29T10:45:57;3.78;;;0.95;;
73571;SDS011;61854;48.510;-2.770;2022-07-29T10:48:25;2.55;;;0.93;;
73571;SDS011;61854;48.510;-2.770;2022-07-29T10:50:51;4.93;;;1.10;;
73571;SDS011;61854;48.510;-2.770;2022-07-29T10:53:49;5.68;;;1.10;;
73571;SDS011;61854;48.510;-2.770;2022-07-29T10:56:28;5.53;;;1.30;;
73571;SDS011;61854;48.510;-2.770;2022-07-29T10:59:38;2.75;;;1.08;;
73571;SDS011;61854;48.510;-2.770;2022-07-29T11:01:45;5.03;;;1.02;;
73571;SDS011;61854;48.510;-2.770;2022-07-29T11:04:15;4.60;;;0.93;;
73571;SDS011;61854;48.510;-2.770;2022-07-29T11:09:29;4.90;;;1.02;;
73571;SDS011;61854;48.510;-2.770;2022-07-29T11:11:55;5.50;;;0.95;;
73571;SDS011;61854;48.510;-2.770;2022-07-29T11:17:25;3.25;;;1.00;;
73571;SDS011;61854;48.510;-2.770;2022-07-29T11:22:54;3.90;;;1.10;;
73571;SDS011;61854;48.510;-2.770;2022-07-29T11:25:20;2.47;;;0.88;;
73571;SDS011;61854;48.510;-2.770;2022-07-29T11:27:46;3.33;;;0.82;;
73571;SDS011;61854;48.510;-2.770;2022-07-29T11:30:12;8.85;;;1.10;;
73571;SDS011;61854;48.510;-2.770;2022-07-29T11:32:39;2.65;;;0.88;;
73571;SDS011;61854;48.510;-2.770;2022-07-29T11:35:17;4.05;;;1.05;;
73571;SDS011;61854;48.510;-2.770;2022-07-29T11:43:49;3.35;;;0.77;;
73571;SDS011;61854;48.510;-2.770;2022-07-29T11:49:24;28.08;;;1.70;;
73571;SDS011;61854;48.510;-2.770;2022-07-29T11:51:59;3.40;;;0.85;;
73571;SDS011;61854;48.510;-2.770;2022-07-29T11:54:33;14.05;;;1.48;;
73571;SDS011;61854;48.510;-2.770;2022-07-29T11:56:59;6.00;;;0.90;;
73571;SDS011;61854;48.510;-2.770;2022-07-29T11:59:25;2.92;;;0.90;;
73571;SDS011;61854;48.510;-2.770;2022-07-29T12:01:55;5.03;;;0.90;;
73571;SDS011;61854;48.510;-2.770;2022-07-29T12:04:22;5.85;;;1.00;;
73571;SDS011;61854;48.510;-2.770;2022-07-29T12:06:49;3.47;;;0.80;;
73571;SDS011;61854;48.510;-2.770;2022-07-29T12:09:19;3.63;;;1.00;;
73571;SDS011;61854;48.510;-2.770;2022-07-29T12:11:45;3.03;;;1.00;;
73571;SDS011;61854;48.510;-2.770;2022-07-29T12:14:31;7.22;;;1.17;;
73571;SDS011;61854;48.510;-2.770;2022-07-29T12:16:57;5.45;;;1.05;;
73571;SDS011;61854;48.510;-2.770;2022-07-29T12:19:24;25.65;;;1.73;;
73571;SDS011;61854;48.510;-2.770;2022-07-29T12:21:51;4.57;;;0.70;;
73571;SDS011;61854;48.510;-2.770;2022-07-29T12:24:20;2.00;;;0.68;;
73571;SDS011;61854;48.510;-2.770;2022-07-29T12:29:22;6.80;;;1.20;;
73571;SDS011;61854;48.510;-2.770;2022-07-29T12:31:55;3.30;;;0.90;;
73571;SDS011;61854;48.510;-2.770;2022-07-29T12:34:22;2.67;;;0.90;;
73571;SDS011;61854;48.510;-2.770;2022-07-29T12:36:51;3.92;;;0.77;;
73571;SDS011;61854;48.510;-2.770;2022-07-29T12:39:17;1.95;;;0.93;;
73571;SDS011;61854;48.510;-2.770;2022-07-29T12:41:43;3.38;;;0.80;;
73571;SDS011;61854;48.510;-2.770;2022-07-29T12:44:09;3.40;;;0.77;;
73571;SDS011;61854;48.510;-2.770;2022-07-29T12:46:36;4.93;;;0.80;;
73571;SDS011;61854;48.510;-2.770;2022-07-29T12:49:02;2.90;;;0.70;;
73571;SDS011;61854;48.510;-2.770;2022-07-29T12:51:36;2.80;;;0.70;;
73571;SDS011;61854;48.510;-2.770;2022-07-29T12:54:10;2.58;;;0.85;;
73571;SDS011;61854;48.510;-2.770;2022-07-29T12:56:41;2.88;;;0.80;;
73571;SDS011;61854;48.510;-2.770;2022-07-29T13:01:44;4.07;;;0.80;;
73571;SDS011;61854;48.510;-2.770;2022-07-29T13:04:23;4.32;;;0.90;;
73571;SDS011;61854;48.510;-2.770;2022-07-29T13:07:05;2.65;;;0.90;;
73571;SDS011;61854;48.510;-2.770;2022-07-29T13:09:39;4.35;;;0.85;;
73571;SDS011;61854;48.510;-2.770;2022-07-29T13:12:06;2.35;;;0.80;;
73571;SDS011;61854;48.510;-2.770;2022-07-29T13:14:37;3.45;;;0.90;;
73571;SDS011;61854;48.510;-2.770;2022-07-29T13:17:07;4.28;;;0.80;;
73571;SDS011;61854;48.510;-2.770;2022-07-29T13:19:37;6.07;;;1.00;;
73571;SDS011;61854;48.510;-2.770;2022-07-29T13:22:11;6.03;;;1.23;;
73571;SDS011;61854;48.510;-2.770;2022-07-29T13:24:58;3.28;;;0.90;;
73571;SDS011;61854;48.510;-2.770;2022-07-29T13:27:29;3.92;;;0.80;;
73571;SDS011;61854;48.510;-2.770;2022-07-29T13:30:01;3.25;;;0.80;;
73571;SDS011;61854;48.510;-2.770;2022-07-29T13:32:29;4.47;;;1.10;;
73571;SDS011;61854;48.510;-2.770;2022-07-29T13:34:56;17.48;;;1.83;;
73571;SDS011;61854;48.510;-2.770;2022-07-29T13:39:49;3.80;;;0.73;;
73571;SDS011;61854;48.510;-2.770;2022-07-29T13:42:14;7.47;;;1.08;;
73571;SDS011;61854;48.510;-2.770;2022-07-29T13:44:40;3.05;;;0.82;;
73571;SDS011;61854;48.510;-2.770;2022-07-29T13:47:06;3.63;;;0.80;;
73571;SDS011;61854;48.510;-2.770;2022-07-29T13:49:33;4.47;;;0.93;;
73571;SDS011;61854;48.510;-2.770;2022-07-29T13:51:59;4.88;;;0.80;;
73571;SDS011;61854;48.510;-2.770;2022-07-29T13:54:25;71.43;;;3.38;;
73571;SDS011;61854;48.510;-2.770;2022-07-29T13:56:51;20.45;;;1.30;;
73571;SDS011;61854;48.510;-2.770;2022-07-29T13:59:16;4.03;;;0.80;;
73571;SDS011;61854;48.510;-2.770;2022-07-29T14:01:42;2.63;;;0.73;;
73571;SDS011;61854;48.510;-2.770;2022-07-29T14:04:08;3.33;;;0.85;;
73571;SDS011;61854;48.510;-2.770;2022-07-29T14:06:34;2.40;;;0.85;;
73571;SDS011;61854;48.510;-2.770;2022-07-29T14:09:01;7.85;;;1.30;;
73571;SDS011;61854;48.510;-2.770;2022-07-29T14:11:27;3.75;;;0.60;;
73571;SDS011;61854;48.510;-2.770;2022-07-29T14:13:52;2.95;;;0.65;;
73571;SDS011;61854;48.510;-2.770;2022-07-29T14:16:18;3.63;;;0.70;;
73571;SDS011;61854;48.510;-2.770;2022-07-29T14:18:43;2.40;;;0.68;;
73571;SDS011;61854;48.510;-2.770;2022-07-29T14:21:09;2.50;;;0.73;;
73571;SDS011;61854;48.510;-2.770;2022-07-29T14:23:35;2.15;;;0.70;;
73571;SDS011;61854;48.510;-2.770;2022-07-29T14:26:01;3.05;;;0.68;;
73571;SDS011;61854;48.510;-2.770;2022-07-29T14:28:27;3.28;;;0.98;;
73571;SDS011;61854;48.510;-2.770;2022-07-29T14:30:52;1.85;;;0.70;;
73571;SDS011;61854;48.510;-2.770;2022-07-29T14:33:18;3.33;;;0.70;;
73571;SDS011;61854;48.510;-2.770;2022-07-29T14:35:45;5.10;;;0.90;;
73571;SDS011;61854;48.510;-2.770;2022-07-29T14:38:10;3.22;;;1.08;;
73571;SDS011;61854;48.510;-2.770;2022-07-29T14:40:36;5.60;;;0.90;;
73571;SDS011;61854;48.510;-2.770;2022-07-29T14:43:02;3.97;;;0.80;;
73571;SDS011;61854;48.510;-2.770;2022-07-29T14:45:28;2.45;;;0.80;;
73571;SDS011;61854;48.510;-2.770;2022-07-29T14:47:54;4.40;;;1.00;;
73571;SDS011;61854;48.510;-2.770;2022-07-29T14:50:20;7.82;;;1.00;;
73571;SDS011;61854;48.510;-2.770;2022-07-29T14:52:45;4.90;;;0.85;;
73571;SDS011;61854;48.510;-2.770;2022-07-29T14:55:14;3.45;;;0.80;;
73571;SDS011;61854;48.510;-2.770;2022-07-29T14:57:39;2.60;;;0.90;;
73571;SDS011;61854;48.510;-2.770;2022-07-29T15:00:05;2.30;;;0.82;;
73571;SDS011;61854;48.510;-2.770;2022-07-29T15:02:32;2.38;;;0.82;;
73571;SDS011;61854;48.510;-2.770;2022-07-29T15:04:58;2.72;;;0.73;;
73571;SDS011;61854;48.510;-2.770;2022-07-29T15:07:24;6.85;;;1.00;;
73571;SDS011;61854;48.510;-2.770;2022-07-29T15:09:50;4.80;;;0.88;;
73571;SDS011;61854;48.510;-2.770;2022-07-29T15:12:15;5.60;;;0.95;;
73571;SDS011;61854;48.510;-2.770;2022-07-29T15:14:41;7.75;;;1.08;;
73571;SDS011;61854;48.510;-2.770;2022-07-29T15:17:07;4.22;;;0.77;;
73571;SDS011;61854;48.510;-2.770;2022-07-29T15:19:32;2.03;;;0.70;;
73571;SDS011;61854;48.510;-2.770;2022-07-29T15:21:58;3.33;;;1.00;;
73571;SDS011;61854;48.510;-2.770;2022-07-29T15:24:24;3.60;;;0.90;;
73571;SDS011;61854;48.510;-2.770;2022-07-29T15:26:50;5.32;;;0.70;;
73571;SDS011;61854;48.510;-2.770;2022-07-29T15:29:16;2.83;;;0.77;;
73571;SDS011;61854;48.510;-2.770;2022-07-29T15:31:41;2.05;;;0.75;;
73571;SDS011;61854;48.510;-2.770;2022-07-29T15:34:07;5.82;;;1.10;;
73571;SDS011;61854;48.510;-2.770;2022-07-29T15:36:33;3.10;;;0.75;;